Time;durP1;ratioP1;P1;durP2;ratioP2;P2;SDS_P1;SDS_P2;PMS_P1;PMS_P2;Temp;Humidity;BMP_temperature;BMP_pressure;BME280_temperature;BME280_humidity;BME280_pressure;Samples;Min_cycle;Max_cycle;Signal;HPM_P1;HPM_P2
2022/10/03 00:57:56;2398655.00;8.00;4477.62;3359.00;0.01;6.44;;;;;17.80;1.00;;;;;;2291143;60;1342;-90
2022/10/03 01:03:20;1992923.00;6.64;3609.80;0.00;0.00;0.62;;;;;17.70;1.00;;;;;;2290923;60;1380;-88
2022/10/03 01:59:12;3099990.00;10.33;6181.88;226992.00;0.76;392.37;;;;;16.70;1.00;;;;;;2487348;40;3454;31
2022/10/03 02:19:26;2235489.00;7.45;4119.61;147839.00;0.49;256.08;;;;;16.70;1.00;;;;;;2294980;60;1306;-91
2022/10/03 02:35:06;2358243.00;7.86;4387.74;0.00;0.00;0.62;;;;;16.20;1.00;;;;;;2290714;60;1380;-91
2022/10/03 02:40:57;2386452.00;7.95;4450.39;17050.00;0.06;30.16;;;;;16.10;1.00;;;;;;2290661;60;1647;-91
2022/10/03 02:46:14;1893017.00;6.31;3406.92;100053.00;0.33;173.66;;;;;16.10;1.00;;;;;;2520788;55;3560;31
2022/10/03 03:39:51;716580.00;2.39;1236.00;0.00;0.00;0.62;;;;;15.30;1.00;;;;;;2504546;55;3723;31
2022/10/03 05:08:01;1859354.00;6.20;3339.42;56260.00;0.19;98.01;;;;;17.40;1.00;;;;;;2291052;60;1957;-89
2022/10/03 05:13:07;1555410.00;5.18;2747.82;0.00;0.00;0.62;;;;;17.50;1.00;;;;;;2295369;60;1325;-89
2022/10/03 05:56:03;2219582.00;7.40;4085.38;51605.00;0.17;89.96;;;;;16.60;1.00;;;;;;2290880;60;1014;-89
2022/10/03 07:25:20;1736391.00;5.79;3096.35;46432.00;0.15;81.02;;;;;16.20;2.00;;;;;;2287874;61;1379;-89
2022/10/03 07:34:06;2276374.00;7.59;4208.12;88606.00;0.30;153.90;;;;;16.00;2.60;;;;;;2498041;40;3742;31
2022/10/03 07:47:08;2291778.00;7.64;4241.67;0.00;0.00;0.62;;;;;15.90;3.60;;;;;;2273783;61;1038;-88
2022/10/03 08:18:05;1915417.00;6.38;3452.07;171264.00;0.57;296.44;;;;;18.10;1.00;;;;;;2270031;61;1324;-89
2022/10/03 09:41:58;1603647.00;5.35;2839.71;85778.00;0.29;149.02;;;;;19.30;1.00;;;;;;2280016;40;3581;-87
2022/10/03 09:49:55;1664529.00;5.55;2956.71;0.00;0.00;0.62;;;;;18.80;1.00;;;;;;1966877;40;3608;-85
2022/10/03 09:52:46;716656.00;2.39;1236.13;58832.00;0.20;102.46;;;;;19.00;1.00;;;;;;2283278;40;3592;-87
2022/10/03 10:05:48;1941555.00;6.47;3505.00;0.00;0.00;0.62;;;;;19.30;1.00;;;;;;1965369;56;3560;-86
2022/10/03 10:13:49;1230956.00;4.10;2146.29;0.00;0.00;0.62;;;;;19.20;1.00;;;;;;2275151;61;1888;-88
2022/10/03 10:16:40;674735.00;2.25;1163.45;71090.00;0.24;123.64;;;;;19.00;1.00;;;;;;2272473;61;1070;-89
2022/10/03 10:19:26;578117.00;1.93;996.45;0.00;0.00;0.62;;;;;19.10;1.00;;;;;;2272300;61;1098;-87
2022/10/03 10:25:02;1285525.00;4.29;2245.64;0.00;0.00;0.62;;;;;19.10;1.00;;;;;;2296532;40;3593;-86
2022/10/03 10:30:21;1177136.00;3.92;2048.94;0.00;0.00;0.62;;;;;18.70;1.00;;;;;;2273865;61;1407;-88
2022/10/03 10:33:28;713293.00;2.38;1230.30;65380.00;0.22;113.78;;;;;18.80;1.00;;;;;;2272394;61;1986;-86
2022/10/03 10:38:38;1309276.00;4.36;2289.09;0.00;0.00;0.62;;;;;19.30;1.00;;;;;;2270303;61;1869;-87
2022/10/03 10:41:56;412219.00;1.37;710.81;0.00;0.00;0.62;;;;;19.50;1.00;;;;;;2268261;61;993;-87
2022/10/03 10:45:05;332701.00;1.11;574.13;0.00;0.00;0.62;;;;;19.60;1.00;;;;;;2267467;61;1628;-86
2022/10/03 10:48:07;465252.00;1.55;802.02;0.00;0.00;0.62;;;;;19.50;1.00;;;;;;2265732;61;1352;-88
2022/10/03 10:51:05;595243.00;1.98;1026.01;0.00;0.00;0.62;;;;;19.40;1.00;;;;;;2268334;61;1524;-88
2022/10/03 10:54:05;736941.00;2.46;1271.36;0.00;0.00;0.62;;;;;19.70;1.00;;;;;;2268293;61;2003;-87
2022/10/03 10:57:10;479518.00;1.60;826.57;0.00;0.00;0.62;;;;;19.90;1.00;;;;;;2268378;61;913;-89
2022/10/03 11:00:26;488969.00;1.63;842.83;0.00;0.00;0.62;;;;;20.30;1.00;;;;;;2268298;61;1022;-87
2022/10/03 11:03:50;411356.00;1.37;709.33;0.00;0.00;0.62;;;;;19.80;1.00;;;;;;2268255;61;1671;-88
2022/10/03 11:09:41;120640424.00;402.13;71127776.00;0.00;0.00;0.62;;;;;20.50;1.00;;;;;;2282092;55;3660;-86
2022/10/03 11:15:35;1070494.00;3.57;1857.74;0.00;0.00;0.62;;;;;19.90;1.00;;;;;;2274034;61;1408;-89
2022/10/03 11:18:35;234532.00;0.78;405.35;0.00;0.00;0.62;;;;;20.40;1.00;;;;;;2272196;61;988;-88
2022/10/03 11:26:20;932054.00;3.11;1612.49;0.00;0.00;0.62;;;;;20.70;1.00;;;;;;2281620;40;3551;-87
2022/10/03 11:29:39;1601397.00;5.34;2835.41;578.00;0.00;1.62;;;;;20.70;1.00;;;;;;2278293;61;1402;-86
2022/10/03 11:43:54;1359655.00;4.53;2381.70;68732.00;0.23;119.57;;;;;20.60;1.00;;;;;;2327298;56;3637;-89
2022/10/03 11:48:58;1564442.00;5.21;2764.98;101206.00;0.34;175.65;;;;;21.00;1.00;;;;;;2273624;61;1541;-88
2022/10/03 11:56:39;1628094.00;5.43;2886.55;39968.00;0.13;69.83;;;;;21.00;1.00;;;;;;2270042;61;1417;-87
2022/10/03 12:01:53;827530.00;2.76;1429.18;0.00;0.00;0.62;;;;;21.70;1.00;;;;;;2280571;55;3658;-87
2022/10/03 12:04:28;424531.00;1.42;731.98;0.00;0.00;0.62;;;;;21.50;1.00;;;;;;2276152;61;1459;-89
2022/10/03 12:10:06;634836.00;2.12;1094.41;171993.00;0.57;297.70;;;;;21.70;1.00;;;;;;2276258;61;685;-86
2022/10/03 12:12:44;374743.00;1.25;646.39;0.00;0.00;0.62;;;;;21.50;1.00;;;;;;2282874;55;3589;-88
2022/10/03 12:15:29;611654.00;2.04;1054.35;0.00;0.00;0.62;;;;;21.50;1.00;;;;;;2271983;61;1680;-86
2022/10/03 12:18:06;472542.00;1.58;814.56;0.00;0.00;0.62;;;;;21.70;1.00;;;;;;2284175;55;3725;-89
2022/10/03 12:20:48;702811.00;2.34;1212.11;0.00;0.00;0.62;;;;;21.60;1.00;;;;;;2276926;61;1085;-86
2022/10/03 12:23:32;433980.00;1.45;748.23;9811.00;0.03;17.62;;;;;21.40;1.00;;;;;;2276766;61;1365;-87
2022/10/03 12:26:07;562010.00;1.87;968.67;78348.00;0.26;136.18;;;;;21.10;1.00;;;;;;2282224;55;3801;-88
2022/10/03 12:28:39;386107.00;1.29;665.92;0.00;0.00;0.62;;;;;21.20;1.00;;;;;;2273364;61;2391;-88
2022/10/03 12:31:17;281881.00;0.94;486.77;0.00;0.00;0.62;;;;;20.90;1.00;;;;;;2273306;61;991;-87
2022/10/03 12:33:51;447244.00;1.49;771.04;0.00;0.00;0.62;;;;;19.90;1.00;;;;;;2273362;61;1992;-88
2022/10/03 12:36:25;554565.00;1.85;955.83;63479.00;0.21;110.49;;;;;19.30;1.00;;;;;;2273357;61;1341;-88
2022/10/03 12:39:18;582801.00;1.94;1004.53;74426.00;0.25;129.41;;;;;19.00;1.00;;;;;;2273424;61;986;-88
2022/10/03 12:42:00;597270.00;1.99;1029.51;21965.00;0.07;38.67;;;;;18.60;1.00;;;;;;2272254;61;1018;-87
2022/10/03 12:44:44;517882.00;1.73;892.62;0.00;0.00;0.62;;;;;18.60;1.00;;;;;;2272773;61;1360;-87
2022/10/03 12:47:27;452266.00;1.51;779.68;37939.00;0.13;66.32;;;;;19.00;1.00;;;;;;2272726;61;1057;-88
2022/10/03 12:52:29;892386.00;2.97;1542.75;0.00;0.00;0.62;;;;;18.70;1.00;;;;;;2279268;61;1879;-87
2022/10/03 12:57:59;120262568.00;400.88;70460920.00;0.00;0.00;0.62;;;;;18.60;1.00;;;;;;2266248;61;1389;-90
2022/10/03 13:00:36;374877.00;1.25;646.62;0.00;0.00;0.62;;;;;18.00;1.00;;;;;;2261410;61;1031;-87
2022/10/03 13:03:17;422033.00;1.41;727.69;0.00;0.00;0.62;;;;;17.90;1.00;;;;;;2264624;61;1411;-87
2022/10/03 13:06:07;615933.00;2.05;1061.74;23867.00;0.08;41.97;;;;;17.40;1.00;;;;;;2264641;61;1272;-89
2022/10/03 13:08:44;495958.00;1.65;854.86;26845.00;0.09;47.12;;;;;17.50;1.00;;;;;;2264598;61;1755;-86
2022/10/03 13:11:24;450860.00;1.50;777.26;0.00;0.00;0.62;;;;;17.10;1.00;;;;;;2264661;61;1035;-87
2022/10/03 13:14:06;346715.00;1.16;598.22;0.00;0.00;0.62;;;;;17.30;1.00;;;;;;2264552;61;1923;-86
2022/10/03 13:16:44;301140.00;1.00;519.88;0.00;0.00;0.62;;;;;17.70;1.00;;;;;;2264592;61;1068;-87
2022/10/03 13:19:16;457355.00;1.52;788.43;0.00;0.00;0.62;;;;;18.00;1.00;;;;;;2264654;61;1003;-86
2022/10/03 13:22:05;228644.00;0.76;395.22;0.00;0.00;0.62;;;;;18.50;1.00;;;;;;2264566;61;1033;-84
2022/10/03 13:24:38;455175.00;1.52;784.68;0.00;0.00;0.62;;;;;18.80;1.00;;;;;;2264510;61;1455;-85
2022/10/03 13:27:31;494606.00;1.65;852.54;0.00;0.00;0.62;;;;;19.10;1.00;;;;;;2264443;61;1747;-86
2022/10/03 13:30:05;397492.00;1.32;685.49;0.00;0.00;0.62;;;;;18.90;1.00;;;;;;2264490;61;1143;-85
2022/10/03 13:32:36;419315.00;1.40;723.01;0.00;0.00;0.62;;;;;18.50;1.00;;;;;;2264384;61;1997;-86
2022/10/03 13:38:15;598795.00;2.00;1032.14;83071.00;0.28;144.34;;;;;18.90;1.00;;;;;;2264570;61;608;-85
2022/10/03 13:40:48;129234240.00;430.78;87453816.00;0.00;0.00;0.62;;;;;19.10;1.00;;;;;;2264518;61;1119;-83
2022/10/03 13:43:22;491559.00;1.64;847.29;27984.00;0.09;49.09;;;;;19.50;1.00;;;;;;2264474;61;1435;-85
2022/10/03 13:45:55;426975.00;1.42;736.18;0.00;0.00;0.62;;;;;19.80;1.00;;;;;;2264471;61;1143;-86
2022/10/03 13:48:28;391216.00;1.30;674.71;0.00;0.00;0.62;;;;;19.80;1.00;;;;;;2264479;61;1107;-85
2022/10/03 13:51:01;431211.00;1.44;743.47;0.00;0.00;0.62;;;;;19.70;1.00;;;;;;2264493;61;1115;-87
2022/10/03 13:53:59;382948.00;1.28;660.49;0.00;0.00;0.62;;;;;19.30;1.00;;;;;;2264296;61;1919;-86
2022/10/03 13:56:41;307745.00;1.03;531.23;0.00;0.00;0.62;;;;;18.90;1.00;;;;;;2264383;61;1151;-87
2022/10/03 13:59:33;689166.00;2.30;1188.46;0.00;0.00;0.62;;;;;18.50;1.00;;;;;;2264360;61;1070;-86
2022/10/03 14:02:16;736832.00;2.46;1271.17;56909.00;0.19;99.13;;;;;18.70;1.00;;;;;;2264056;61;1161;-85
2022/10/03 14:05:02;740980.00;2.47;1278.38;102273.00;0.34;177.50;;;;;18.80;1.00;;;;;;2264434;61;1494;-87
2022/10/03 14:07:44;573988.00;1.91;989.33;66328.00;0.22;115.41;;;;;18.40;1.00;;;;;;2264456;61;1062;-87
2022/10/03 14:10:40;555016.00;1.85;956.61;62718.00;0.21;109.18;;;;;18.40;1.00;;;;;;2264403;61;1079;-85
2022/10/03 14:13:21;146651248.00;488.84;127841136.00;59011.00;0.20;102.77;;;;;18.60;1.00;;;;;;2264293;61;1986;-86
2022/10/03 14:15:58;561590.00;1.87;967.94;60093.00;0.20;104.64;;;;;19.00;1.00;;;;;;2264339;61;1069;-85
2022/10/03 14:18:43;481795.00;1.61;830.49;9805.00;0.03;17.61;;;;;19.10;1.00;;;;;;2264288;61;1463;-86
2022/10/03 14:21:45;610618.00;2.04;1052.56;92271.00;0.31;160.23;;;;;19.70;1.00;;;;;;2264372;61;958;-86
2022/10/03 14:24:49;709253.00;2.36;1223.29;62835.00;0.21;109.38;;;;;19.70;1.00;;;;;;2264330;61;1365;-85
2022/10/03 14:27:41;591960.00;1.97;1020.34;0.00;0.00;0.62;;;;;19.20;1.00;;;;;;2262825;61;1478;-85
2022/10/03 14:30:15;542451.00;1.81;934.95;39352.00;0.13;68.77;;;;;19.10;1.00;;;;;;2264216;61;1122;-85
2022/10/03 14:32:54;177258.00;0.59;306.77;0.00;0.00;0.62;;;;;19.40;1.00;;;;;;2264275;61;1924;-86
2022/10/03 14:35:39;634681.00;2.12;1094.14;0.00;0.00;0.62;;;;;19.60;1.00;;;;;;2264284;61;1561;-85
2022/10/03 14:38:56;506241.00;1.69;872.57;0.00;0.00;0.62;;;;;19.40;1.00;;;;;;2264350;61;1058;-85
2022/10/03 14:41:24;207435.00;0.69;358.72;0.00;0.00;0.62;;;;;18.80;1.00;;;;;;2264132;61;1206;-86
2022/10/03 14:43:55;515203.00;1.72;888.00;87122.00;0.29;151.34;;;;;18.10;1.00;;;;;;2264348;61;1415;-85
2022/10/03 14:46:27;430685.00;1.44;742.56;0.00;0.00;0.62;;;;;18.00;1.00;;;;;;2264334;61;1059;-86
2022/10/03 14:48:59;326187.00;1.09;562.93;0.00;0.00;0.62;;;;;18.60;1.00;;;;;;2264351;61;1079;-87
2022/10/03 14:51:30;332205.00;1.11;573.28;0.00;0.00;0.62;;;;;18.20;1.00;;;;;;2264298;61;1102;-85
2022/10/03 14:54:04;457966.00;1.53;789.49;0.00;0.00;0.62;;;;;17.90;1.00;;;;;;2264266;61;2026;-86
2022/10/03 14:56:34;325786.00;1.09;562.24;0.00;0.00;0.62;;;;;18.00;1.00;;;;;;2264236;61;1050;-85
2022/10/03 14:59:11;367634.00;1.23;634.17;0.00;0.00;0.62;;;;;17.60;1.00;;;;;;2264151;61;1018;-87
2022/10/03 15:01:48;372658.00;1.24;642.81;39114.00;0.13;68.36;;;;;17.50;1.00;;;;;;2264262;61;1039;-86
2022/10/03 15:04:35;210570.00;0.70;364.12;0.00;0.00;0.62;;;;;17.60;1.00;;;;;;2264192;61;1562;-87
2022/10/03 15:07:04;177720.00;0.59;307.56;0.00;0.00;0.62;;;;;18.00;1.00;;;;;;2264225;61;1477;-86
2022/10/03 15:09:43;436560.00;1.46;752.67;13719.00;0.05;24.39;;;;;18.20;1.00;;;;;;2264177;61;1110;-85
2022/10/03 15:12:18;338735.00;1.13;584.50;0.00;0.00;0.62;;;;;18.30;1.00;;;;;;2264218;61;1087;-88
2022/10/03 15:14:57;433047.00;1.44;746.63;66553.00;0.22;115.80;;;;;18.00;1.00;;;;;;2264251;61;2013;-85
2022/10/03 15:17:30;584234.00;1.95;1007.01;0.00;0.00;0.62;;;;;18.50;1.00;;;;;;2264257;61;1126;-86
2022/10/03 15:20:01;471220.00;1.57;812.29;38308.00;0.13;66.96;;;;;18.30;1.00;;;;;;2264237;61;1030;-84
2022/10/03 15:22:34;406529.00;1.36;701.03;0.00;0.00;0.62;;;;;18.30;1.00;;;;;;2264262;61;1148;-86
2022/10/03 15:25:07;738079.00;2.46;1273.34;141828.00;0.47;245.72;;;;;18.30;1.00;;;;;;2264210;61;959;-87
2022/10/03 15:27:35;461405.00;1.54;795.40;0.00;0.00;0.62;;;;;17.80;1.00;;;;;;2264231;61;1045;-85
2022/10/03 15:30:05;448464.00;1.49;773.14;23369.00;0.08;41.10;;;;;18.00;1.00;;;;;;2264161;61;1142;-85
2022/10/03 15:32:38;508415.00;1.69;876.31;31491.00;0.10;55.16;;;;;17.90;1.00;;;;;;2264141;61;1365;-86
2022/10/03 15:35:06;264276.00;0.88;456.50;0.00;0.00;0.62;;;;;18.10;1.00;;;;;;2264180;61;2007;-85
2022/10/03 15:37:41;431289.00;1.44;743.60;30850.00;0.10;54.05;;;;;17.80;1.00;;;;;;2264236;61;1020;-85
2022/10/03 15:40:21;328183.00;1.09;566.36;0.00;0.00;0.62;;;;;17.50;1.00;;;;;;2264213;61;1112;-86
2022/10/03 15:42:52;262852.00;0.88;454.05;0.00;0.00;0.62;;;;;17.70;1.00;;;;;;2264221;61;1474;-85
2022/10/03 15:45:28;582593.00;1.94;1004.17;60135.00;0.20;104.71;;;;;17.90;1.00;;;;;;2264137;61;2241;-85
2022/10/03 15:47:59;288180.00;0.96;497.60;0.00;0.00;0.62;;;;;18.00;1.00;;;;;;2264153;61;1086;-85
2022/10/03 15:50:32;268837.00;0.90;464.34;0.00;0.00;0.62;;;;;18.40;1.00;;;;;;2264204;61;1071;-85
2022/10/03 15:53:09;425760.00;1.42;734.09;0.00;0.00;0.62;;;;;18.70;1.00;;;;;;2264086;61;2006;-85
2022/10/03 15:55:43;525245.00;1.75;905.30;0.00;0.00;0.62;;;;;18.70;1.00;;;;;;2264726;61;1134;-85
2022/10/03 15:58:17;352530.00;1.18;608.21;0.00;0.00;0.62;;;;;18.60;1.00;;;;;;2264887;61;1205;-85
2022/10/03 16:00:52;140829.00;0.47;244.00;0.00;0.00;0.62;;;;;18.80;1.00;;;;;;2264811;61;1111;-86
2022/10/03 16:03:28;342925.00;1.14;591.70;0.00;0.00;0.62;;;;;18.70;1.00;;;;;;2264811;61;1436;-87
2022/10/03 16:06:05;398452.00;1.33;687.14;0.00;0.00;0.62;;;;;17.90;1.00;;;;;;2264848;61;1045;-84
2022/10/03 16:08:39;378191.00;1.26;652.32;0.00;0.00;0.62;;;;;17.80;1.00;;;;;;2264801;61;1018;-84
2022/10/03 16:11:20;624104.00;2.08;1075.86;46252.00;0.15;80.70;;;;;17.90;1.00;;;;;;2264816;61;1170;-85
2022/10/03 16:13:56;929854.00;3.10;1608.62;165846.00;0.55;287.11;;;;;18.00;1.00;;;;;;2264743;61;1917;-84
2022/10/03 16:16:36;669229.00;2.23;1153.92;0.00;0.00;0.62;;;;;17.90;1.00;;;;;;2264794;61;1102;-85
2022/10/03 16:19:29;1169292.00;3.90;2034.80;0.00;0.00;0.62;;;;;18.20;1.00;;;;;;2264796;61;1131;-85
2022/10/03 16:22:07;594947.00;1.98;1025.50;78406.00;0.26;136.28;;;;;18.20;1.00;;;;;;2264788;61;1210;-84
2022/10/03 16:24:41;572317.00;1.91;986.44;67185.00;0.22;116.90;;;;;18.10;1.00;;;;;;2264735;61;1519;-83
2022/10/03 16:27:16;489878.00;1.63;844.40;20348.00;0.07;35.87;;;;;18.00;1.00;;;;;;2264816;61;1091;-85
2022/10/03 16:29:51;933595.00;3.11;1615.20;243092.00;0.81;420.07;;;;;17.50;1.00;;;;;;2264793;61;1136;-85
2022/10/03 16:32:22;402755.00;1.34;694.54;0.00;0.00;0.62;;;;;17.20;1.00;;;;;;2264746;61;1188;-85
2022/10/03 16:34:50;222626.00;0.74;384.86;0.00;0.00;0.62;;;;;17.40;1.00;;;;;;2264623;61;1911;-85
2022/10/03 16:37:21;651008.00;2.17;1122.38;0.00;0.00;0.62;;;;;17.20;1.00;;;;;;2264698;61;1083;-86
2022/10/03 16:39:55;343032.00;1.14;591.88;0.00;0.00;0.62;;;;;17.30;1.00;;;;;;2264725;61;1139;-86
2022/10/03 16:42:27;814377.00;2.71;1406.21;94332.00;0.31;163.79;;;;;17.50;1.00;;;;;;2264601;61;1124;-86
2022/10/03 16:45:00;419119.00;1.40;722.68;0.00;0.00;0.62;;;;;17.30;1.00;;;;;;2264652;61;1381;-87
2022/10/03 16:47:35;485992.00;1.62;837.71;9039.00;0.03;16.28;;;;;17.20;1.00;;;;;;2264672;61;1040;-85
2022/10/03 16:52:52;577979.00;1.93;996.21;0.00;0.00;0.62;;;;;17.10;1.00;;;;;;2264654;61;1376;-85
2022/10/03 16:55:25;484714.00;1.62;835.51;0.00;0.00;0.62;;;;;17.10;1.00;;;;;;2264581;61;1928;-86
2022/10/03 16:57:57;345884.00;1.15;596.79;0.00;0.00;0.62;;;;;17.10;1.00;;;;;;2264695;61;1095;-86
2022/10/03 17:00:32;356676.00;1.19;615.34;0.00;0.00;0.62;;;;;17.10;1.00;;;;;;2264649;61;1177;-85
2022/10/03 17:03:02;680543.00;2.27;1173.51;73974.00;0.25;128.63;;;;;16.90;1.00;;;;;;2264599;61;1359;-86
2022/10/03 17:05:41;367625.00;1.23;634.15;0.00;0.00;0.62;;;;;16.80;1.00;;;;;;2264553;61;1137;-84
2022/10/03 17:08:13;414684.00;1.38;715.05;0.00;0.00;0.62;;;;;17.20;1.00;;;;;;2264529;61;1219;-84
2022/10/03 17:10:41;376804.00;1.26;649.93;0.00;0.00;0.62;;;;;17.30;1.00;;;;;;2264622;61;1111;-86
2022/10/03 17:13:16;472407.00;1.57;814.33;0.00;0.00;0.62;;;;;17.40;1.00;;;;;;2264511;61;1284;-86
2022/10/03 17:15:52;349860.00;1.17;603.62;0.00;0.00;0.62;;;;;17.60;1.00;;;;;;2264576;61;1931;-86
2022/10/03 17:18:25;444809.00;1.48;766.85;0.00;0.00;0.62;;;;;17.80;1.00;;;;;;2264668;61;1139;-86
2022/10/03 17:20:57;390424.00;1.30;673.34;0.00;0.00;0.62;;;;;17.90;1.00;;;;;;2264673;61;1173;-86
2022/10/03 17:23:34;536448.00;1.79;924.60;42612.00;0.14;74.41;;;;;17.90;1.00;;;;;;2264495;61;1422;-84
2022/10/03 17:26:07;148540.00;0.50;257.29;0.00;0.00;0.62;;;;;18.30;1.00;;;;;;2264602;61;1075;-84
2022/10/03 17:28:44;904235.00;3.01;1563.56;63686.00;0.21;110.85;;;;;18.50;1.00;;;;;;2264553;61;1379;-85
2022/10/03 17:31:30;539795.00;1.80;930.37;53145.00;0.18;92.62;;;;;18.70;1.00;;;;;;2264565;61;1147;-85
2022/10/03 17:34:04;370581.00;1.24;639.24;0.00;0.00;0.62;;;;;18.80;1.00;;;;;;2264505;61;1917;-84
2022/10/03 17:36:48;591805.00;1.97;1020.07;10752.00;0.04;19.25;;;;;18.80;1.00;;;;;;2264572;61;1189;-84
2022/10/03 17:39:31;647770.00;2.16;1116.78;0.00;0.00;0.62;;;;;18.70;1.00;;;;;;2264527;61;1743;-83
2022/10/03 17:42:07;512943.00;1.71;884.11;60086.00;0.20;104.63;;;;;18.70;1.00;;;;;;2264545;61;1034;-84
2022/10/03 17:44:45;496947.00;1.66;856.57;75878.00;0.25;131.92;;;;;18.60;1.00;;;;;;2264488;61;1475;-84
2022/10/03 17:47:19;426810.00;1.42;735.90;0.00;0.00;0.62;;;;;18.50;1.00;;;;;;2264503;61;1022;-85
2022/10/03 17:49:58;442412.00;1.47;762.73;0.00;0.00;0.62;;;;;18.50;1.00;;;;;;2264503;61;1728;-83
2022/10/03 17:52:26;508237.00;1.69;876.01;0.00;0.00;0.62;;;;;18.80;1.00;;;;;;2264493;61;1087;-84
2022/10/03 17:54:58;412875.00;1.38;711.94;0.00;0.00;0.62;;;;;18.80;1.00;;;;;;2264414;61;1916;-84
2022/10/03 17:57:31;492000.00;1.64;848.05;0.00;0.00;0.62;;;;;18.80;1.00;;;;;;2264544;61;1151;-85
2022/10/03 18:00:07;587483.00;1.96;1012.61;0.00;0.00;0.62;;;;;18.70;1.00;;;;;;2264524;61;1073;-84
2022/10/03 18:02:43;692742.00;2.31;1194.65;30791.00;0.10;53.95;;;;;18.60;1.00;;;;;;2264465;61;1327;-83
2022/10/03 18:05:17;571819.00;1.91;985.58;42377.00;0.14;74.00;;;;;18.30;1.00;;;;;;2264492;61;1083;-85
2022/10/03 18:07:45;348470.00;1.16;601.23;0.00;0.00;0.62;;;;;18.40;1.00;;;;;;2264462;61;1103;-89
2022/10/03 18:10:26;494046.00;1.65;851.57;0.00;0.00;0.62;;;;;18.30;1.00;;;;;;2264480;61;1143;-85
2022/10/03 18:12:56;431141.00;1.44;743.35;0.00;0.00;0.62;;;;;18.40;1.00;;;;;;2264404;61;1757;-87
2022/10/03 18:15:42;710836.00;2.37;1226.03;51366.00;0.17;89.55;;;;;18.40;1.00;;;;;;2264385;61;2018;-84
2022/10/03 18:18:51;440109.00;1.47;758.77;0.00;0.00;0.62;;;;;18.10;1.00;;;;;;2264405;61;1033;-84
2022/10/03 18:21:36;418983.00;1.40;722.44;0.00;0.00;0.62;;;;;18.20;1.00;;;;;;2264379;61;1132;-84
2022/10/03 18:24:31;513245.00;1.71;884.63;0.00;0.00;0.62;;;;;18.20;1.00;;;;;;2264369;61;1295;-84
2022/10/03 18:27:15;344462.00;1.15;594.34;0.00;0.00;0.62;;;;;18.20;1.00;;;;;;2264371;61;1172;-85
2022/10/03 18:29:51;387547.00;1.29;668.40;0.00;0.00;0.62;;;;;18.40;1.00;;;;;;2264412;61;1147;-84
2022/10/03 18:32:24;510996.00;1.70;880.76;0.00;0.00;0.62;;;;;18.60;1.00;;;;;;2264394;61;1201;-84
2022/10/03 18:35:04;324759.00;1.08;560.48;0.00;0.00;0.62;;;;;18.70;1.00;;;;;;2264383;61;2014;-85
2022/10/03 18:38:11;501578.00;1.67;864.54;0.00;0.00;0.62;;;;;18.70;1.00;;;;;;2264406;61;1144;-87
2022/10/03 18:40:46;500866.00;1.67;863.31;0.00;0.00;0.62;;;;;18.50;1.00;;;;;;2264353;61;1119;-84
2022/10/03 18:43:32;631919.00;2.11;1089.37;0.00;0.00;0.62;;;;;18.40;1.00;;;;;;2264061;61;1285;-84
2022/10/03 18:46:09;497493.00;1.66;857.51;0.00;0.00;0.62;;;;;18.20;1.00;;;;;;2264395;61;1046;-84
2022/10/03 18:48:46;430914.00;1.44;742.96;0.00;0.00;0.62;;;;;18.20;1.00;;;;;;2264344;61;1130;-84
2022/10/03 18:51:20;538101.00;1.79;927.45;0.00;0.00;0.62;;;;;18.30;1.00;;;;;;2264363;61;1108;-85
2022/10/03 18:53:51;502417.00;1.67;865.99;0.00;0.00;0.62;;;;;18.30;1.00;;;;;;2264293;61;1365;-84
2022/10/03 18:56:24;436524.00;1.46;752.60;0.00;0.00;0.62;;;;;18.40;1.00;;;;;;2264212;61;1543;-84
2022/10/03 18:59:07;616030.00;2.05;1061.91;0.00;0.00;0.62;;;;;18.40;1.00;;;;;;2264319;61;1034;-84
2022/10/03 19:01:44;668365.00;2.23;1152.42;0.00;0.00;0.62;;;;;18.40;1.00;;;;;;2264333;61;1081;-84
2022/10/03 19:04:19;398403.00;1.33;687.06;0.00;0.00;0.62;;;;;18.30;1.00;;;;;;2264186;61;1324;-83
2022/10/03 19:06:51;652313.00;2.17;1124.64;0.00;0.00;0.62;;;;;18.30;1.00;;;;;;2264268;61;1028;-84
2022/10/03 19:09:24;480249.00;1.60;827.83;0.00;0.00;0.62;;;;;18.20;1.00;;;;;;2264326;61;1118;-85
2022/10/03 19:11:56;534529.00;1.78;921.30;0.00;0.00;0.62;;;;;18.30;1.00;;;;;;2264255;61;930;-83
2022/10/03 19:14:32;795136.00;2.65;1372.64;71100.00;0.24;123.66;;;;;18.30;1.00;;;;;;2264265;61;1912;-83
2022/10/03 19:17:22;546520.00;1.82;941.96;0.00;0.00;0.62;;;;;18.30;1.00;;;;;;2264246;61;1063;-83
2022/10/03 19:19:54;749265.00;2.50;1292.78;41418.00;0.14;72.34;;;;;18.30;1.00;;;;;;2264242;61;2249;-85
2022/10/03 19:22:30;716381.00;2.39;1235.66;0.00;0.00;0.62;;;;;18.40;1.00;;;;;;2264242;61;963;-85
2022/10/03 19:25:01;778206.00;2.59;1343.14;14685.00;0.05;26.07;;;;;18.20;1.00;;;;;;2264234;61;1051;-85
2022/10/03 19:27:42;793378.00;2.64;1369.58;0.00;0.00;0.62;;;;;18.10;1.00;;;;;;2264263;61;1094;-86
2022/10/03 19:30:17;684906.00;2.28;1181.07;0.00;0.00;0.62;;;;;18.20;1.00;;;;;;2264258;61;1102;-85
2022/10/03 19:32:51;863152.00;2.88;1491.49;0.00;0.00;0.62;;;;;18.10;1.00;;;;;;2264305;61;1342;-85
2022/10/03 19:35:22;475091.00;1.58;818.95;0.00;0.00;0.62;;;;;18.10;1.00;;;;;;2264203;61;1985;-86
2022/10/03 19:37:52;121652976.00;405.51;72935496.00;0.00;0.00;0.62;;;;;18.10;1.00;;;;;;2264211;61;1563;-85
2022/10/03 19:40:42;606616.00;2.02;1045.64;20763.00;0.07;36.59;;;;;18.20;1.00;;;;;;2264222;61;2082;-86
2022/10/03 19:43:32;603202.00;2.01;1039.75;0.00;0.00;0.62;;;;;18.20;1.00;;;;;;2264235;61;1462;-85
2022/10/03 19:46:32;681610.00;2.27;1175.36;12410.00;0.04;22.12;;;;;18.20;1.00;;;;;;2264280;61;1090;-84
2022/10/03 19:49:22;434121.00;1.45;748.47;0.00;0.00;0.62;;;;;18.20;1.00;;;;;;2264211;61;898;-86
2022/10/03 19:51:52;460378.00;1.53;793.63;0.00;0.00;0.62;;;;;18.20;1.00;;;;;;2263020;61;1455;-87
2022/10/03 19:54:32;120637848.00;402.13;71123216.00;9427.00;0.03;16.96;;;;;18.10;1.00;;;;;;2264093;61;1920;-86
2022/10/03 19:57:04;630198.00;2.10;1086.39;0.00;0.00;0.62;;;;;18.20;1.00;;;;;;2264150;61;1099;-85
2022/10/03 19:59:43;763869.00;2.55;1318.18;0.00;0.00;0.62;;;;;18.30;1.00;;;;;;2264184;61;1492;-86
2022/10/03 20:02:12;628482.00;2.09;1083.43;16981.00;0.06;30.04;;;;;18.20;1.00;;;;;;2264161;61;1140;-85
2022/10/03 20:04:39;642021.00;2.14;1106.83;0.00;0.00;0.62;;;;;18.30;1.00;;;;;;2264004;61;1430;-85
2022/10/03 20:07:16;471299.00;1.57;812.42;0.00;0.00;0.62;;;;;18.30;1.00;;;;;;2264168;61;1143;-84
2022/10/03 20:09:56;645353.00;2.15;1112.60;18612.00;0.06;32.87;;;;;18.10;1.00;;;;;;2264153;61;1083;-85
2022/10/03 20:12:26;536750.00;1.79;925.12;0.00;0.00;0.62;;;;;18.10;1.00;;;;;;2264161;61;1075;-85
2022/10/03 20:14:54;532240.00;1.77;917.35;0.00;0.00;0.62;;;;;18.10;1.00;;;;;;2264079;61;1906;-85
2022/10/03 20:17:23;699718.00;2.33;1206.75;52282.00;0.17;91.13;;;;;17.90;1.00;;;;;;2264167;61;1128;-85
2022/10/03 20:19:54;617462.00;2.06;1064.38;0.00;0.00;0.62;;;;;17.80;1.00;;;;;;2264120;61;1271;-85
2022/10/03 20:22:26;541898.00;1.81;933.99;0.00;0.00;0.62;;;;;17.70;1.00;;;;;;2264097;61;1044;-85
2022/10/03 20:24:54;605094.00;2.02;1043.02;0.00;0.00;0.62;;;;;17.70;1.00;;;;;;2264072;61;1525;-86
2022/10/03 20:27:34;356009.00;1.19;614.19;0.00;0.00;0.62;;;;;17.60;1.00;;;;;;2264120;61;1087;-85
2022/10/03 20:30:24;558519.00;1.86;962.65;11125.00;0.04;19.90;;;;;17.50;1.00;;;;;;2264081;61;1104;-85
2022/10/03 20:32:53;469837.00;1.57;809.91;4011.00;0.01;7.57;;;;;17.60;1.00;;;;;;2264107;61;1363;-85
2022/10/03 20:35:25;119454064.00;398.18;69048088.00;70038.00;0.23;121.83;;;;;17.80;1.00;;;;;;2264068;61;1989;-85
2022/10/03 20:38:00;649092.00;2.16;1119.07;14082.00;0.05;25.02;;;;;17.90;1.00;;;;;;2264069;61;2219;-85
2022/10/03 20:40:35;125516136.00;418.39;80113888.00;0.00;0.00;0.62;;;;;17.90;1.00;;;;;;2264547;61;1087;-85
2022/10/03 20:43:35;542372.00;1.81;934.81;0.00;0.00;0.62;;;;;17.90;1.00;;;;;;2264797;61;1387;-85
2022/10/03 20:46:17;501971.00;1.67;865.22;0.00;0.00;0.62;;;;;17.80;1.00;;;;;;2264741;61;1237;-86
2022/10/03 20:49:05;392294.00;1.31;676.56;0.00;0.00;0.62;;;;;17.60;1.00;;;;;;2264764;61;1093;-85